WetterOnline ( http://www.wetteronline.de )

Wetter aktuell Pinneberg

Aktuelles Wetter: Quickborn (17m)

6-stündlich | Neueste Meldungen
Ortszeit Temperatur Wetter
Fr, 22.02. 13:00 4.5° C wolkig
Fr, 22.02. 7:00 5.0° C bedeckt
Fr, 22.02. 1:00 7.0° C bedeckt
Do, 21.02. 19:00 7.7° C Sprühregen
Do, 21.02. 13:00 8.7° C bedeckt
Do, 21.02. 7:00 7.4° C bedeckt
Do, 21.02. 1:00 8.2° C wolkig
Mi, 20.02. 19:00 8.5° C bewölkt
Ortszeit Temperatur Wetter
Fr, 22.02. 18:30 4.2° C wolkig
Fr, 22.02. 18:20 4.2° C wolkig
Fr, 22.02. 18:10 4.2° C wolkig
Fr, 22.02. 18:00 4.6° C wolkig
Fr, 22.02. 17:50 4.6° C wolkig
Fr, 22.02. 17:40 5.0° C wolkig
Fr, 22.02. 17:30 5.3° C -
Fr, 22.02. 17:00 5.9° C leicht bewölkt
Fr, 22.02. 16:30 6.3° C wolkenlos
Fr, 22.02. 16:00 6.6° C wolkenlos
Fr, 22.02. 15:30 6.2° C wolkenlos
Ortszeit Relative Feuchte Sichtweite
Fr, 22.02. 13:00 73% >70 km
Fr, 22.02. 7:00 90% 24 km
Fr, 22.02. 1:00 97% 5.0 km
Do, 21.02. 19:00 95% 5.0 km
Do, 21.02. 13:00 81% 12 km
Do, 21.02. 7:00 77% 17 km
Do, 21.02. 1:00 72% 22 km
Mi, 20.02. 19:00 73% 30 km
Ortszeit Relative Feuchte Sichtweite
Fr, 22.02. 18:30 65% 40 km
Fr, 22.02. 18:20 65% -
Fr, 22.02. 18:10 66% -
Fr, 22.02. 18:00 64% 50 km
Fr, 22.02. 17:50 64% -
Fr, 22.02. 17:40 62% -
Fr, 22.02. 17:30 61% 45 km
Fr, 22.02. 17:00 61% 50 km
Fr, 22.02. 16:30 59% 35 km
Fr, 22.02. 16:00 60% 45 km
Fr, 22.02. 15:30 60% 45 km
Ortszeit Niederschlagsmenge Niederschlagsart
Fr, 22.02. 13:00 0.0 l/m2 in 6 Std. -
Fr, 22.02. 7:00 0.1 l/m2 in 12 Std. Sprühregen
Fr, 22.02. 1:00 0.1 l/m2 in 6 Std. Regen
Do, 21.02. 19:00 2 l/m2 in 12 Std. Regen
Do, 21.02. 13:00 0.1 l/m2 in 6 Std. Regen
Do, 21.02. 7:00 0.1 l/m2 in 12 Std. Regen
Do, 21.02. 1:00 0.1 l/m2 in 6 Std. Regen
Mi, 20.02. 19:00 0.1 l/m2 in 12 Std. Sprühregen
Ortszeit Niederschlagsmenge Niederschlagsart
Fr, 22.02. 18:30 0.0 l/m2 in 1 Std. -
Fr, 22.02. 18:20 keine Meldung -
Fr, 22.02. 18:10 keine Meldung -
Fr, 22.02. 18:00 0.0 l/m2 in 1 Std. -
Fr, 22.02. 17:50 keine Meldung -
Fr, 22.02. 17:40 keine Meldung -
Fr, 22.02. 17:30 0.0 l/m2 in 1 Std. -
Fr, 22.02. 17:00 0.0 l/m2 in 1 Std. -
Fr, 22.02. 16:30 0.0 l/m2 in 1 Std. -
Fr, 22.02. 16:00 0.0 l/m2 in 1 Std. -
Fr, 22.02. 15:30 0.0 l/m2 in 1 Std. -
Ortszeit Stärke Spitze Richtung
km/h Bft. km/h Grad Sektor
Fr, 22.02. 13:00 14 3 32 70° O
Fr, 22.02. 7:00 11 2 33 50° NO
Fr, 22.02. 1:00 11 2 32 320° NW
Do, 21.02. 19:00 15 3 31 280° W
Do, 21.02. 13:00 17 3 31 250° W
Do, 21.02. 7:00 7 2 25 230° SW
Do, 21.02. 1:00 14 3 25 220° SW
Mi, 20.02. 19:00 13 3 33 230° SW
Ortszeit Stärke Spitze Richtung
km/h Bft. km/h Grad Sektor
Fr, 22.02. 18:30 7 2 14 90° O
Fr, 22.02. 18:20 7 2 - 90° O
Fr, 22.02. 18:10 9 2 - 80° O
Fr, 22.02. 18:00 9 2 22 80° O
Fr, 22.02. 17:50 9 2 - 80° O
Fr, 22.02. 17:40 9 2 - 80° O
Fr, 22.02. 17:30 11 2 22 90° O
Fr, 22.02. 17:00 11 2 22 90° O
Fr, 22.02. 16:30 14 3 22 80° O
Fr, 22.02. 16:00 13 3 22 80° O
Fr, 22.02. 15:30 13 3 22 80° O
Ortszeit Untergrenze Bedeckung Gattung
total tief tief mittel hoch
Fr, 22.02. 13:00 510 m 6/8 6/8 - - -
Fr, 22.02. 7:00 210 m 8/8 8/8 - - -
Fr, 22.02. 1:00 90 m 8/8 8/8 - - -
Do, 21.02. 19:00 120 m 8/8 8/8 - - -
Do, 21.02. 13:00 360 m 8/8 8/8 - - -
Do, 21.02. 7:00 1020 m 8/8 8/8 - - -
Do, 21.02. 1:00 1500 m 8/8 1/8 - - -
Mi, 20.02. 19:00 690 m 7/8 7/8 - - -
Ortszeit Bedeckungsgrad in Achtel und Wolkenuntergrenze
Fr, 22.02. 18:30 8(10500m) 8(12000m)
Fr, 22.02. 18:20 8(10500m) 8(12000m)
Fr, 22.02. 18:10 8(10500m) 8(12000m)
Fr, 22.02. 18:00 8(10500m)
Fr, 22.02. 17:50 8(10500m)
Fr, 22.02. 17:40 8(10500m)
Fr, 22.02. 17:30 -
Fr, 22.02. 17:00 2(3000m) 3(12000m)
Fr, 22.02. 16:30 3(3000m)
Fr, 22.02. 16:00 1(3000m)
Fr, 22.02. 15:30 keine Wolken
Ortszeit Luftdruck NN (hPa) Tendenz (hPa in 3 Std.)
Fr, 22.02. 13:00 1040 + 2,1
Fr, 22.02. 7:00 1034 + 3,1
Fr, 22.02. 1:00 1028 + 1,9
Do, 21.02. 19:00 1024 + 1,3
Do, 21.02. 13:00 1023 + 0,1
Do, 21.02. 7:00 1021 - 0,2
Do, 21.02. 1:00 1022 + 0,1
Mi, 20.02. 19:00 1022 + 0,8
Ortszeit Luftdruck NN (hPa) Tendenz (hPa in 3 Std.)
Fr, 22.02. 18:30 1042 + 1,0
Fr, 22.02. 18:20 1042 keine Meldung
Fr, 22.02. 18:10 1042 keine Meldung
Fr, 22.02. 18:00 1042 + 1,2
Fr, 22.02. 17:50 1042 keine Meldung
Fr, 22.02. 17:40 1041 keine Meldung
Fr, 22.02. 17:30 1041 + 1,1
Fr, 22.02. 17:00 1041 + 0,5
Fr, 22.02. 16:30 1041 + 0,7
Fr, 22.02. 16:00 1041 + 0,7
Fr, 22.02. 15:30 1041 + 0,8
Ortszeit Schneehöhe (cm)
Fr, 22.02. 13:00 0
Fr, 22.02. 7:00 0
Fr, 22.02. 1:00 0
Do, 21.02. 19:00 0
Do, 21.02. 13:00 0
Do, 21.02. 7:00 0
Do, 21.02. 1:00 0
Mi, 20.02. 19:00 0
Ortszeit Schneehöhe (cm)
Fr, 22.02. 18:30 0
Fr, 22.02. 18:20 0
Fr, 22.02. 18:10 0
Fr, 22.02. 18:00 0
Fr, 22.02. 17:50 0
Fr, 22.02. 17:40 0
Fr, 22.02. 17:30 0
Fr, 22.02. 17:00 0
Fr, 22.02. 16:30 0
Fr, 22.02. 16:00 0
Fr, 22.02. 15:30 0
Link zu dieser Seite / Seite empfehlen

Das Wetter in ...